Time;durP1;ratioP1;P1;durP2;ratioP2;P2;SDS_P1;SDS_P2;PMS_P1;PMS_P2;Temp;Humidity;BMP_temperature;BMP_pressure;BME280_temperature;BME280_humidity;BME280_pressure;Samples;Min_cycle;Max_cycle;Signal;HPM_P1;HPM_P2
2024/02/21 00:00:09;;;;;;;12.00;3.40;;;;;;;9.43;100.00;102091.34;5014626;28;20230;-72
2024/02/21 00:02:35;;;;;;;13.03;3.90;;;;;;;9.38;100.00;102073.09;5016190;28;20196;-73
2024/02/21 00:05:00;;;;;;;14.77;4.30;;;;;;;9.40;100.00;102071.13;5031293;28;20860;-72
2024/02/21 00:07:25;;;;;;;16.53;4.07;;;;;;;9.54;100.00;102109.81;5032059;28;20651;-72
2024/02/21 00:09:51;;;;;;;24.17;4.30;;;;;;;9.55;100.00;102100.81;5030012;28;20886;-73
2024/02/21 00:12:16;;;;;;;14.03;3.60;;;;;;;9.56;100.00;102082.88;5013963;28;20665;-72
2024/02/21 00:14:42;;;;;;;13.53;3.53;;;;;;;9.61;100.00;102088.59;5011510;28;20619;-72
2024/02/21 00:17:08;;;;;;;13.53;3.60;;;;;;;9.59;100.00;102091.44;5016397;28;20551;-72
2024/02/21 00:19:34;;;;;;;13.63;3.83;;;;;;;9.59;100.00;102080.72;5032306;28;20222;-72
2024/02/21 00:21:59;;;;;;;10.13;3.50;;;;;;;9.47;100.00;102069.47;5033554;28;20426;-72
2024/02/21 00:24:25;;;;;;;12.70;3.70;;;;;;;9.61;100.00;102081.41;5015010;28;20192;-73
2024/02/21 00:26:50;;;;;;;18.63;4.50;;;;;;;9.53;100.00;102043.03;5032160;28;20191;-73
2024/02/21 00:29:15;;;;;;;13.70;3.80;;;;;;;8.64;100.00;101923.88;5032620;28;20598;-72
2024/02/21 00:31:41;;;;;;;12.10;2.90;;;;;;;9.49;100.00;102050.56;5036502;28;20241;-72
2024/02/21 00:34:07;;;;;;;21.80;4.20;;;;;;;9.17;100.00;101989.66;5030742;28;20187;-72
2024/02/21 00:36:32;;;;;;;15.17;3.63;;;;;;;8.58;100.00;101903.97;5033173;28;20192;-73
2024/02/21 00:38:58;;;;;;;14.57;3.83;;;;;;;8.99;100.00;101946.94;5033249;28;20208;-72
2024/02/21 00:41:23;;;;;;;18.43;4.03;;;;;;;8.98;100.00;101964.00;5016111;28;20222;-72
2024/02/21 00:43:50;;;;;;;15.90;3.57;;;;;;;9.32;100.00;101998.78;5033089;28;20248;-72
2024/02/21 00:46:15;;;;;;;12.83;3.80;;;;;;;9.02;100.00;101989.44;5016594;28;20177;-73
2024/02/21 00:48:41;;;;;;;16.27;3.70;;;;;;;7.88;100.00;101816.66;5031921;28;20427;-73
2024/02/21 00:51:07;;;;;;;16.93;3.90;;;;;;;9.03;100.00;102018.72;5014775;28;20238;-72
2024/02/21 00:53:33;;;;;;;17.27;4.00;;;;;;;8.93;100.00;101999.25;5037916;28;20426;-72
2024/02/21 00:55:58;;;;;;;16.10;3.50;;;;;;;8.35;100.00;101917.84;5016531;28;20184;-72
2024/02/21 00:58:24;;;;;;;15.80;3.50;;;;;;;9.05;100.00;102035.47;5037497;28;20203;-72
2024/02/21 01:00:49;;;;;;;13.20;3.53;;;;;;;8.56;100.00;101948.75;5034657;28;20211;-72
2024/02/21 01:03:15;;;;;;;15.73;3.70;;;;;;;8.68;100.00;101965.34;5038836;28;20180;-72
2024/02/21 01:05:40;;;;;;;13.00;3.10;;;;;;;8.99;100.00;102019.19;5032534;28;20572;-73
2024/02/21 01:08:05;;;;;;;16.07;4.33;;;;;;;9.13;100.00;102029.31;5034409;28;20187;-72
2024/02/21 01:10:31;;;;;;;16.20;2.90;;;;;;;9.03;100.00;102023.25;5041888;28;20211;-72
2024/02/21 01:12:56;;;;;;;13.53;3.10;;;;;;;8.93;100.00;102025.19;5037001;28;20887;-72
2024/02/21 01:15:22;;;;;;;14.00;4.00;;;;;;;8.97;100.00;102006.00;5032943;28;20181;-72
2024/02/21 01:17:47;;;;;;;15.87;3.70;;;;;;;8.81;100.00;101984.50;5031381;28;20188;-72
2024/02/21 01:20:13;;;;;;;15.90;3.73;;;;;;;8.97;100.00;102008.66;5027793;28;20693;-72
2024/02/21 01:22:38;;;;;;;12.33;3.30;;;;;;;8.80;100.00;101997.03;5034751;28;20187;-72
2024/02/21 01:25:04;;;;;;;17.60;3.53;;;;;;;8.49;100.00;101927.16;5032827;28;20185;-72
2024/02/21 01:27:29;;;;;;;16.40;4.43;;;;;;;8.51;100.00;101921.66;5034318;28;20294;-72
2024/02/21 01:29:57;;;;;;;14.23;3.90;;;;;;;8.54;100.00;101918.66;5030151;28;20717;-72
2024/02/21 01:32:24;;;;;;;12.17;3.00;;;;;;;8.51;100.00;101924.34;5014594;28;20177;-72
2024/02/21 01:34:51;;;;;;;16.63;4.37;;;;;;;9.16;100.00;102037.03;5033950;28;20848;-72
2024/02/21 01:37:17;;;;;;;17.40;4.57;;;;;;;8.94;100.00;101990.25;5033693;28;20421;-72
2024/02/21 01:39:42;;;;;;;15.40;3.33;;;;;;;8.70;100.00;101958.00;5029681;28;20469;-72
2024/02/21 01:42:09;;;;;;;12.27;3.57;;;;;;;9.17;100.00;102029.81;5032245;28;20613;-72
2024/02/21 01:44:34;;;;;;;12.97;4.83;;;;;;;9.11;100.00;102022.44;5019204;28;20180;-72
2024/02/21 01:47:00;;;;;;;17.03;4.37;;;;;;;8.74;100.00;101946.84;5032194;28;20438;-72
2024/02/21 01:49:26;;;;;;;17.13;4.97;;;;;;;8.76;100.00;101947.50;5016253;28;20207;-72
2024/02/21 01:51:53;;;;;;;18.53;4.60;;;;;;;9.07;100.00;101978.25;5036370;28;20229;-72
2024/02/21 01:54:19;;;;;;;24.90;5.10;;;;;;;9.10;100.00;102000.19;5036738;28;20418;-72
2024/02/21 01:56:45;;;;;;;16.67;5.60;;;;;;;9.08;100.00;102001.34;5036345;28;20813;-72
2024/02/21 01:59:12;;;;;;;18.80;4.83;;;;;;;8.84;100.00;101986.84;5034544;28;20474;-72
2024/02/21 02:01:39;;;;;;;16.33;4.87;;;;;;;9.11;100.00;102012.56;5033535;28;20529;-72
2024/02/21 02:04:05;;;;;;;20.63;5.30;;;;;;;8.87;100.00;101988.38;5033977;28;20514;-72
2024/02/21 02:06:31;;;;;;;16.47;5.37;;;;;;;8.27;100.00;101909.75;5034584;28;20450;-72
2024/02/21 02:08:57;;;;;;;15.50;4.33;;;;;;;8.88;100.00;102014.13;5033857;28;20434;-72
2024/02/21 02:11:22;;;;;;;17.57;4.73;;;;;;;8.87;100.00;102029.34;5040464;28;21025;-72
2024/02/21 02:13:47;;;;;;;14.60;4.83;;;;;;;8.29;100.00;101923.81;5033524;28;20787;-72
2024/02/21 02:16:13;;;;;;;14.60;4.73;;;;;;;8.53;100.00;101981.16;5012493;28;20231;-72
2024/02/21 02:18:38;;;;;;;15.10;4.80;;;;;;;8.56;100.00;102000.41;5032667;28;20207;-72
2024/02/21 02:21:13;;;;;;;15.00;4.53;;;;;;;8.82;100.00;102024.47;5033801;28;20558;-72
2024/02/21 02:23:40;;;;;;;13.57;4.60;;;;;;;8.73;100.00;102004.00;5033243;28;20266;-72
2024/02/21 02:26:07;;;;;;;11.83;4.90;;;;;;;8.85;100.00;102038.53;5019168;28;20419;-72
2024/02/21 02:28:32;;;;;;;16.40;5.07;;;;;;;8.65;100.00;102033.41;5029969;28;20442;-72
2024/02/21 02:30:58;;;;;;;11.77;4.03;;;;;;;8.69;100.00;102018.69;5017860;28;20474;-72
2024/02/21 02:33:23;;;;;;;11.40;4.33;;;;;;;8.73;100.00;102037.94;5015808;28;20613;-72
2024/02/21 02:35:49;;;;;;;15.87;5.27;;;;;;;8.63;100.00;102040.72;5037213;28;20564;-72
2024/02/21 02:38:14;;;;;;;14.30;5.70;;;;;;;8.58;100.00;102040.34;5032946;28;20423;-72
2024/02/21 02:40:41;;;;;;;13.63;5.07;;;;;;;8.45;100.00;102053.31;5017121;28;20200;-72
2024/02/21 02:43:07;;;;;;;10.40;4.90;;;;;;;8.41;100.00;102023.34;5021941;28;20195;-72
2024/02/21 02:45:33;;;;;;;11.23;4.10;;;;;;;8.29;100.00;102012.03;5031751;28;20450;-72
2024/02/21 02:47:58;;;;;;;13.93;4.90;;;;;;;8.49;100.00;102049.31;5017269;28;20189;-72
2024/02/21 02:50:25;;;;;;;11.77;4.00;;;;;;;8.71;100.00;102088.94;5015674;28;20981;-72
2024/02/21 02:52:50;;;;;;;9.10;3.50;;;;;;;8.61;100.00;102088.19;5022650;28;20185;-72
2024/02/21 02:55:16;;;;;;;9.60;3.93;;;;;;;8.79;100.00;102106.88;5034594;28;20938;-72
2024/02/21 02:57:42;;;;;;;13.30;4.10;;;;;;;8.71;100.00;102101.47;5032295;28;20184;-72
2024/02/21 03:00:10;;;;;;;9.80;3.80;;;;;;;8.78;100.00;102114.06;5016968;28;20211;-72
2024/02/21 03:02:36;;;;;;;12.13;3.90;;;;;;;8.36;100.00;102061.22;5026645;28;21066;-72
2024/02/21 03:05:12;;;;;;;15.80;4.53;;;;;;;8.46;100.00;102082.56;5021951;28;20470;-72
2024/02/21 03:07:40;;;;;;;10.40;3.90;;;;;;;8.08;100.00;102038.25;5024102;28;20582;-72
2024/02/21 03:10:06;;;;;;;14.40;4.87;;;;;;;8.71;100.00;102131.75;5017222;28;20516;-72
2024/02/21 03:12:32;;;;;;;11.30;4.20;;;;;;;8.46;100.00;102098.59;5018837;28;20454;-72
2024/02/21 03:14:57;;;;;;;11.60;3.97;;;;;;;8.59;100.00;102124.94;5033975;28;20427;-72
2024/02/21 03:17:23;;;;;;;14.10;5.03;;;;;;;8.62;100.00;102132.69;5017938;28;20176;-72
2024/02/21 03:19:49;;;;;;;14.57;4.63;;;;;;;8.75;100.00;102145.63;5021250;28;20307;-72
2024/02/21 03:22:15;;;;;;;13.40;4.70;;;;;;;8.71;100.00;102160.34;5036284;28;20219;-72
2024/02/21 03:24:42;;;;;;;11.33;4.23;;;;;;;8.83;100.00;102159.94;5034395;28;20450;-72
2024/02/21 03:27:08;;;;;;;17.00;5.10;;;;;;;8.67;100.00;102137.53;5017889;28;20530;-72
2024/02/21 03:29:33;;;;;;;11.70;5.33;;;;;;;8.70;100.00;102138.06;5034847;28;21019;-72
2024/02/21 03:31:59;;;;;;;15.37;5.50;;;;;;;8.71;100.00;102115.69;5031411;28;20423;-72
2024/02/21 03:34:24;;;;;;;13.23;5.03;;;;;;;8.24;100.00;102051.75;5033501;28;20184;-72
2024/02/21 03:36:49;;;;;;;18.23;5.30;;;;;;;8.00;100.00;102014.97;5015490;28;20729;-72
2024/02/21 03:39:15;;;;;;;13.47;5.00;;;;;;;8.77;100.00;102135.63;5029636;28;20215;-72
2024/02/21 03:41:40;;;;;;;18.67;5.93;;;;;;;8.77;100.00;102136.47;5036889;28;20191;-72
2024/02/21 03:44:06;;;;;;;14.73;5.40;;;;;;;8.76;100.00;102123.22;5033268;28;20699;-72
2024/02/21 03:46:31;;;;;;;14.83;5.40;;;;;;;8.70;100.00;102102.47;5036285;28;20188;-72
2024/02/21 03:48:57;;;;;;;21.47;5.10;;;;;;;8.65;100.00;102083.34;5017541;28;20188;-72
2024/02/21 03:51:22;;;;;;;18.57;5.37;;;;;;;8.33;100.00;102028.59;5015201;28;20286;-72
2024/02/21 03:53:48;;;;;;;11.37;4.50;;;;;;;8.24;100.00;101997.44;5031883;28;20196;-72
2024/02/21 03:56:13;;;;;;;15.10;6.00;;;;;;;8.77;100.00;102064.25;5035596;28;20538;-72
2024/02/21 03:58:38;;;;;;;15.90;4.83;;;;;;;8.79;100.00;102064.06;5033254;28;20207;-72
2024/02/21 04:01:04;;;;;;;15.83;5.00;;;;;;;8.83;100.00;102060.94;5032391;28;20208;-72
2024/02/21 04:03:30;;;;;;;13.37;4.07;;;;;;;8.70;100.00;102031.06;5016801;28;20941;-72
2024/02/21 04:05:56;;;;;;;16.17;5.10;;;;;;;8.59;100.00;102002.78;5035897;28;20185;-72
2024/02/21 04:08:22;;;;;;;14.67;4.67;;;;;;;8.94;100.00;102043.78;5027316;28;20457;-72
2024/02/21 04:10:48;;;;;;;16.60;4.27;;;;;;;8.58;100.00;101986.88;5027246;28;20208;-72
2024/02/21 04:13:13;;;;;;;18.70;6.00;;;;;;;8.38;100.00;101946.09;5014059;28;20491;-72
2024/02/21 04:15:39;;;;;;;21.13;5.27;;;;;;;8.11;100.00;101904.31;5034299;28;20180;-72
2024/02/21 04:18:04;;;;;;;19.27;5.03;;;;;;;8.45;100.00;101951.72;5011785;28;20207;-71
2024/02/21 04:20:32;;;;;;;27.87;5.27;;;;;;;8.79;100.00;101994.50;5027820;28;20697;-72
2024/02/21 04:22:58;;;;;;;18.70;5.97;;;;;;;8.76;100.00;101979.59;5031822;28;20893;-72
2024/02/21 04:25:24;;;;;;;22.23;5.90;;;;;;;8.92;100.00;101991.41;5019863;28;20458;-72
2024/02/21 04:27:49;;;;;;;21.70;5.90;;;;;;;8.09;100.00;101864.38;5033048;28;20176;-72
2024/02/21 04:30:15;;;;;;;26.13;5.53;;;;;;;8.85;100.00;101963.59;5030252;28;20623;-72
2024/02/21 04:32:41;;;;;;;21.97;5.53;;;;;;;8.60;100.00;101928.72;5033768;28;20190;-72
2024/02/21 04:35:07;;;;;;;23.07;4.90;;;;;;;8.16;100.00;101861.94;5034466;28;20464;-72
2024/02/21 04:37:32;;;;;;;24.13;5.33;;;;;;;8.88;100.00;101969.50;5026510;28;20192;-73
2024/02/21 04:39:58;;;;;;;26.13;6.27;;;;;;;8.92;100.00;101970.84;5033598;28;20532;-72
2024/02/21 04:42:23;;;;;;;20.10;5.20;;;;;;;8.96;100.00;101960.66;5033443;28;20198;-72
2024/02/21 04:44:49;;;;;;;20.90;5.53;;;;;;;8.85;100.00;101939.53;5033477;28;20263;-73
2024/02/21 04:47:14;;;;;;;22.30;4.97;;;;;;;8.78;100.00;101915.25;5010882;28;20172;-73
2024/02/21 04:49:40;;;;;;;20.13;5.50;;;;;;;8.92;100.00;101948.59;5014620;28;20683;-73
2024/02/21 04:52:05;;;;;;;23.17;6.57;;;;;;;8.98;100.00;101947.97;5034930;28;20299;-72
2024/02/21 04:54:31;;;;;;;20.63;6.23;;;;;;;8.95;100.00;101961.66;5016163;28;20210;-72
2024/02/21 04:56:56;;;;;;;18.67;5.63;;;;;;;8.83;100.00;101916.47;5018992;28;20181;-72
2024/02/21 04:59:21;;;;;;;21.90;5.43;;;;;;;8.12;100.00;101796.44;5033949;28;20204;-72
2024/02/21 05:01:47;;;;;;;19.10;5.53;;;;;;;8.50;100.00;101869.16;5016848;28;20290;-72
2024/02/21 05:04:12;;;;;;;21.33;5.43;;;;;;;8.20;100.00;101809.00;5032206;28;20262;-72
2024/02/21 05:06:41;;;;;;;32.73;6.10;;;;;;;8.86;100.00;101922.50;5032413;28;20241;-72
2024/02/21 05:09:08;;;;;;;20.90;5.30;;;;;;;8.83;100.00;101915.63;5013334;28;20216;-72
2024/02/21 05:11:34;;;;;;;22.30;5.43;;;;;;;8.81;100.00;101909.59;5018497;28;20546;-72
2024/02/21 05:14:00;;;;;;;18.27;5.67;;;;;;;8.49;100.00;101872.84;5034205;28;21027;-72
2024/02/21 05:16:25;;;;;;;22.07;5.83;;;;;;;8.86;100.00;101917.16;5032327;28;20961;-72
2024/02/21 05:18:50;;;;;;;22.00;5.67;;;;;;;8.69;100.00;101895.66;5034409;28;20709;-72
2024/02/21 05:21:16;;;;;;;22.00;6.30;;;;;;;8.72;100.00;101889.16;5030760;28;20211;-73
2024/02/21 05:23:41;;;;;;;27.23;6.57;;;;;;;8.74;100.00;101911.25;5031603;28;20646;-72
2024/02/21 05:26:07;;;;;;;24.33;6.60;;;;;;;8.84;100.00;101906.59;5035168;28;20445;-72
2024/02/21 05:28:32;;;;;;;30.23;6.40;;;;;;;8.82;100.00;101896.06;5017420;28;20179;-72
2024/02/21 05:30:58;;;;;;;21.57;5.93;;;;;;;8.65;100.00;101864.91;5033105;28;20215;-72
2024/02/21 05:33:24;;;;;;;23.37;6.13;;;;;;;8.80;100.00;101891.88;5037133;28;20185;-72
2024/02/21 05:35:49;;;;;;;26.40;6.47;;;;;;;8.57;100.00;101851.50;5032662;28;20275;-72
2024/02/21 05:38:15;;;;;;;28.53;7.30;;;;;;;8.62;100.00;101846.50;5038750;28;20431;-72
2024/02/21 05:40:41;;;;;;;21.10;5.97;;;;;;;8.33;100.00;101809.38;5039136;28;20225;-72
2024/02/21 05:43:09;;;;;;;21.70;5.80;;;;;;;8.76;100.00;101869.09;5031417;28;20279;-72
2024/02/21 05:45:34;;;;;;;19.53;6.57;;;;;;;8.72;100.00;101857.88;5036317;28;20639;-73
2024/02/21 05:48:00;;;;;;;21.00;5.93;;;;;;;8.93;100.00;101883.38;5038465;28;20452;-72
2024/02/21 05:50:28;;;;;;;24.50;6.40;;;;;;;8.88;100.00;101877.66;5037726;28;20203;-72
2024/02/21 05:52:55;;;;;;;30.23;6.43;;;;;;;8.44;100.00;101800.28;5013785;28;20522;-72
2024/02/21 05:55:21;;;;;;;21.30;5.97;;;;;;;8.81;100.00;101861.44;5030589;28;20447;-72
2024/02/21 05:57:46;;;;;;;21.77;6.60;;;;;;;8.59;100.00;101809.34;5034964;28;20452;-72
2024/02/21 06:00:12;;;;;;;25.33;5.90;;;;;;;8.53;100.00;101810.88;5037895;28;20295;-72
2024/02/21 06:02:38;;;;;;;24.87;6.27;;;;;;;8.92;100.00;101868.34;5032945;28;20200;-72
2024/02/21 06:05:06;;;;;;;20.17;6.23;;;;;;;8.94;100.00;101868.97;5035119;28;20576;-72
2024/02/21 06:07:32;;;;;;;21.50;5.50;;;;;;;8.54;100.00;101815.22;5034790;28;20247;-72
2024/02/21 06:09:58;;;;;;;22.33;5.23;;;;;;;8.80;100.00;101860.59;5019346;28;20447;-72
2024/02/21 06:12:23;;;;;;;19.97;5.67;;;;;;;8.93;100.00;101878.03;5018673;28;20299;-72
2024/02/21 06:14:49;;;;;;;19.27;5.90;;;;;;;8.70;100.00;101853.69;5034617;28;20189;-72
2024/02/21 06:17:14;;;;;;;20.20;6.40;;;;;;;8.59;100.00;101814.72;5034963;28;20268;-72
2024/02/21 06:19:42;;;;;;;20.20;6.90;;;;;;;8.78;100.00;101843.03;5017312;28;20207;-72
2024/02/21 06:22:09;;;;;;;33.67;6.67;;;;;;;8.91;100.00;101862.16;5031895;28;20218;-72
2024/02/21 06:24:36;;;;;;;23.67;5.30;;;;;;;8.88;100.00;101856.25;5034632;28;20930;-72
2024/02/21 06:27:02;;;;;;;25.63;6.63;;;;;;;8.78;100.00;101838.50;5015533;28;20805;-72
2024/02/21 06:29:27;;;;;;;22.97;6.80;;;;;;;8.88;100.00;101857.13;5036062;28;20437;-72
2024/02/21 06:31:53;;;;;;;17.37;6.13;;;;;;;8.79;100.00;101847.38;5036415;28;20430;-72
2024/02/21 06:34:18;;;;;;;19.33;6.20;;;;;;;8.88;100.00;101851.78;5036434;28;20180;-72
2024/02/21 06:36:45;;;;;;;18.37;6.13;;;;;;;8.81;100.00;101843.53;5014940;28;20180;-72
2024/02/21 06:39:11;;;;;;;20.67;6.20;;;;;;;8.57;100.00;101800.69;5033873;28;20584;-72
2024/02/21 06:41:37;;;;;;;26.53;6.97;;;;;;;8.79;100.00;101850.03;5033876;28;20431;-72
2024/02/21 06:44:02;;;;;;;26.73;6.73;;;;;;;8.55;100.00;101813.38;5035564;28;20441;-73
2024/02/21 06:46:29;;;;;;;30.13;7.37;;;;;;;8.91;100.00;101850.59;5032112;28;20439;-72
2024/02/21 06:48:58;;;;;;;21.97;6.43;;;;;;;8.83;100.00;101822.00;5031319;28;20188;-72
2024/02/21 06:51:24;;;;;;;21.93;6.40;;;;;;;8.57;100.00;101800.69;5034672;28;20480;-72
2024/02/21 06:53:53;;;;;;;19.13;6.90;;;;;;;8.93;100.00;101837.88;5013706;28;20431;-73
2024/02/21 06:56:18;;;;;;;22.47;6.93;;;;;;;8.75;100.00;101812.09;5023124;28;20493;-72
2024/02/21 06:58:44;;;;;;;16.30;6.20;;;;;;;8.67;100.00;101820.09;5035455;28;20470;-73
2024/02/21 07:01:10;;;;;;;20.67;6.17;;;;;;;8.97;100.00;101848.13;5017783;28;20270;-72
2024/02/21 07:03:35;;;;;;;18.27;6.10;;;;;;;9.07;100.00;101844.44;5012927;28;20252;-72
2024/02/21 07:06:00;;;;;;;21.33;7.23;;;;;;;8.85;100.00;101832.50;5016316;28;20548;-72
2024/02/21 07:08:26;;;;;;;15.80;6.10;;;;;;;8.49;100.00;101755.19;5032703;28;20663;-73
2024/02/21 07:10:51;;;;;;;27.43;7.00;;;;;;;8.89;100.00;101834.72;5032760;28;20220;-73
2024/02/21 07:13:17;;;;;;;22.30;6.47;;;;;;;8.93;100.00;101845.91;5035674;28;20177;-72
2024/02/21 07:15:43;;;;;;;23.63;6.87;;;;;;;8.77;100.00;101815.44;5011211;28;20557;-72
2024/02/21 07:18:08;;;;;;;20.80;6.03;;;;;;;8.52;100.00;101801.16;5009682;28;20254;-72
2024/02/21 07:20:36;;;;;;;21.07;6.20;;;;;;;8.80;100.00;101852.56;5044744;28;20211;-72
2024/02/21 07:23:02;;;;;;;24.23;7.20;;;;;;;8.81;100.00;101842.72;5022736;28;20233;-72
2024/02/21 07:25:27;;;;;;;25.73;7.97;;;;;;;8.79;100.00;101852.72;5014856;28;20442;-72
2024/02/21 07:27:53;;;;;;;17.87;5.73;;;;;;;8.42;100.00;101799.59;5037068;28;20259;-72
2024/02/21 07:30:18;;;;;;;23.17;6.70;;;;;;;8.76;100.00;101875.28;5034061;28;20212;-72
2024/02/21 07:32:44;;;;;;;18.27;6.27;;;;;;;8.57;100.00;101857.66;5018576;28;20196;-72
2024/02/21 07:35:12;;;;;;;18.90;6.67;;;;;;;8.49;100.00;101840.75;5020015;28;20194;-72
2024/02/21 07:37:38;;;;;;;27.60;8.20;;;;;;;8.41;100.00;101825.50;5031998;28;20191;-72
2024/02/21 07:40:06;;;;;;;25.53;7.90;;;;;;;8.19;100.00;101802.84;5033258;28;21024;-73
2024/02/21 07:42:31;;;;;;;24.17;7.87;;;;;;;8.41;100.00;101856.75;5032828;28;20193;-72
2024/02/21 07:44:56;;;;;;;21.93;7.60;;;;;;;8.37;100.00;101842.84;5012070;28;20439;-72
2024/02/21 07:47:22;;;;;;;20.70;7.60;;;;;;;8.66;100.00;101895.97;5016393;28;20566;-72
2024/02/21 07:49:48;;;;;;;25.53;7.53;;;;;;;8.49;100.00;101872.84;5012822;28;20196;-73
2024/02/21 07:52:14;;;;;;;23.03;7.90;;;;;;;8.61;100.00;101884.91;5016118;28;20195;-72
2024/02/21 07:54:40;;;;;;;28.70;8.23;;;;;;;8.56;100.00;101900.59;5019847;28;20434;-73
2024/02/21 07:57:07;;;;;;;28.40;8.67;;;;;;;8.58;100.00;101901.28;5017321;28;20218;-73
2024/02/21 07:59:32;;;;;;;23.77;8.73;;;;;;;8.58;100.00;101914.66;5028754;28;20558;-73
2024/02/21 08:01:58;;;;;;;22.40;8.77;;;;;;;8.52;100.00;101905.44;5029318;28;20518;-72
2024/02/21 08:04:24;;;;;;;26.80;9.40;;;;;;;8.57;100.00;101927.19;5014352;28;20675;-72
2024/02/21 08:07:01;;;;;;;22.43;8.40;;;;;;;8.09;100.00;101848.34;5029106;28;20195;-72
2024/02/21 08:09:27;;;;;;;25.87;10.00;;;;;;;8.18;100.00;101857.25;5028007;28;20187;-73
2024/02/21 08:11:54;;;;;;;29.67;11.10;;;;;;;8.64;100.00;101926.56;5026737;28;20435;-72
2024/02/21 08:14:20;;;;;;;27.17;10.20;;;;;;;8.28;100.00;101859.84;5012668;28;20447;-73
2024/02/21 08:16:45;;;;;;;32.87;12.00;;;;;;;8.56;100.00;101916.66;5029063;28;20438;-72
2024/02/21 08:19:11;;;;;;;21.63;10.50;;;;;;;8.58;100.00;101912.00;5014410;28;20238;-72
2024/02/21 08:21:36;;;;;;;27.43;11.90;;;;;;;8.60;100.00;101928.72;5028451;28;20431;-72
2024/02/21 08:24:02;;;;;;;24.20;12.67;;;;;;;8.59;100.00;101927.88;5033268;28;20192;-72
2024/02/21 08:26:30;;;;;;;22.93;11.03;;;;;;;8.48;100.00;101906.78;5031313;28;20193;-72
2024/02/21 08:28:58;;;;;;;24.63;12.53;;;;;;;8.42;100.00;101923.44;5015779;28;20185;-72
2024/02/21 08:31:30;;;;;;;35.37;14.57;;;;;;;8.51;100.00;101943.06;5012135;28;20558;-73
2024/02/21 08:33:56;;;;;;;30.63;14.00;;;;;;;8.60;100.00;101945.59;5030269;28;20491;-72
2024/02/21 08:36:21;;;;;;;31.17;12.40;;;;;;;8.47;100.00;101942.50;5011060;28;20851;-72
2024/02/21 08:38:47;;;;;;;33.33;13.90;;;;;;;8.12;100.00;101884.63;5028957;28;20620;-72
2024/02/21 08:41:12;;;;;;;27.87;11.70;;;;;;;8.56;100.00;101976.34;5025274;28;20230;-72
2024/02/21 08:43:38;;;;;;;32.53;12.97;;;;;;;8.53;100.00;101978.47;5033871;28;20660;-72
2024/02/21 08:46:04;;;;;;;29.33;11.93;;;;;;;8.09;100.00;101903.63;5012469;28;20207;-72
2024/02/21 08:48:30;;;;;;;35.83;11.60;;;;;;;8.40;100.00;101952.16;5013682;28;20493;-71
2024/02/21 08:50:55;;;;;;;33.43;10.20;;;;;;;8.17;100.00;101898.34;5033937;28;20455;-72
2024/02/21 08:53:21;;;;;;;29.03;9.50;;;;;;;8.11;100.00;101881.13;5043326;28;20267;-72
2024/02/21 08:55:46;;;;;;;23.67;9.90;;;;;;;8.15;100.00;101873.63;5034925;28;20191;-72
2024/02/21 08:58:12;;;;;;;21.73;9.03;;;;;;;8.69;100.00;101929.59;5014200;28;20191;-73
2024/02/21 09:00:37;;;;;;;23.67;8.83;;;;;;;8.31;100.00;101870.22;5014422;28;20216;-72
2024/02/21 09:03:03;;;;;;;24.50;8.90;;;;;;;8.69;100.00;101930.44;5028004;28;20187;-72
2024/02/21 09:05:29;;;;;;;26.13;9.30;;;;;;;8.49;100.00;101879.03;5030586;28;20181;-72
2024/02/21 09:07:54;;;;;;;22.30;7.80;;;;;;;8.55;100.00;101898.94;5032158;28;20545;-72
2024/02/21 09:10:21;;;;;;;21.60;8.03;;;;;;;8.72;100.00;101898.00;5031986;28;20298;-72
2024/02/21 09:12:47;;;;;;;21.60;7.23;;;;;;;8.66;100.00;101881.78;5027634;28;20467;-72
2024/02/21 09:15:13;;;;;;;19.97;8.20;;;;;;;8.39;100.00;101840.88;5031286;28;20431;-72
2024/02/21 09:17:39;;;;;;;20.47;7.17;;;;;;;8.19;100.00;101789.47;5028001;28;20956;-72
2024/02/21 09:20:06;;;;;;;22.97;6.93;;;;;;;8.64;100.00;101851.69;5034638;28;20211;-72
2024/02/21 09:22:34;;;;;;;17.90;6.70;;;;;;;8.66;100.00;101841.66;5013873;28;20473;-72
2024/02/21 09:25:00;;;;;;;29.60;7.30;;;;;;;8.71;100.00;101829.47;5018354;28;20477;-72
2024/02/21 09:27:25;;;;;;;17.60;6.90;;;;;;;8.52;100.00;101798.47;5031410;28;20861;-72
2024/02/21 09:29:51;;;;;;;19.77;7.53;;;;;;;7.62;100.00;101623.59;5017722;28;20208;-72
2024/02/21 09:32:16;;;;;;;28.20;8.77;;;;;;;8.53;100.00;101791.28;5035006;28;20647;-72
2024/02/21 09:34:41;;;;;;;21.90;8.53;;;;;;;8.53;100.00;101791.28;5033063;28;20180;-72
2024/02/21 09:37:09;;;;;;;26.03;8.80;;;;;;;8.66;100.00;101810.41;5033210;28;20198;-72
2024/02/21 09:39:35;;;;;;;20.00;8.50;;;;;;;8.40;100.00;101742.81;5018019;28;20288;-71
2024/02/21 09:42:11;;;;;;;17.83;9.00;;;;;;;8.46;100.00;101771.56;5030222;28;20584;-72
2024/02/21 09:44:40;;;;;;;20.77;10.30;;;;;;;8.57;100.00;101788.13;5038341;28;20657;-72
2024/02/21 09:47:26;;;;;;;22.93;10.90;;;;;;;8.58;100.00;101788.97;5017597;28;20449;-72
2024/02/21 09:49:53;;;;;;;22.93;10.40;;;;;;;8.45;100.00;101751.19;5032254;28;20961;-72
2024/02/21 09:52:20;;;;;;;24.70;11.67;;;;;;;8.00;100.00;101683.66;5032982;28;20426;-72
2024/02/21 09:54:48;;;;;;;25.20;12.53;;;;;;;8.13;100.00;101701.94;5035828;28;20430;-72
2024/02/21 09:57:15;;;;;;;22.57;13.33;;;;;;;7.93;100.00;101664.78;5015620;28;20495;-72
2024/02/21 09:59:43;;;;;;;21.60;13.10;;;;;;;8.63;100.00;101745.72;5017454;28;20469;-72
2024/02/21 10:02:09;;;;;;;23.33;13.67;;;;;;;8.64;100.00;101763.41;5032429;28;20527;-72
2024/02/21 10:04:34;;;;;;;28.03;13.43;;;;;;;8.48;100.00;101740.16;5014873;28;20471;-72
2024/02/21 10:07:00;;;;;;;26.23;13.63;;;;;;;8.50;100.00;101717.56;5025993;28;20188;-72
2024/02/21 10:09:29;;;;;;;34.10;15.77;;;;;;;8.55;100.00;101746.50;5015223;28;20723;-72
2024/02/21 10:11:56;;;;;;;24.90;14.67;;;;;;;8.60;100.00;101736.16;5011160;28;20181;-72
2024/02/21 10:14:22;;;;;;;27.03;14.33;;;;;;;8.41;100.00;101707.03;5035566;28;20442;-72
2024/02/21 10:16:49;;;;;;;19.83;13.37;;;;;;;8.73;100.00;101722.31;5034708;28;20855;-72
2024/02/21 10:19:21;;;;;;;25.63;14.87;;;;;;;8.54;100.00;101713.59;5019918;28;20234;-72
2024/02/21 10:22:10;;;;;;;23.67;14.67;;;;;;;8.60;100.00;101709.44;5036195;28;20442;-72
2024/02/21 10:24:43;;;;;;;26.93;14.20;;;;;;;8.48;100.00;101674.16;5036618;28;20441;-72
2024/02/21 10:27:10;;;;;;;27.73;16.57;;;;;;;8.44;100.00;101680.81;5036244;28;20435;-72
2024/02/21 10:29:36;;;;;;;25.97;15.97;;;;;;;8.48;100.00;101684.84;5018850;28;20439;-72
2024/02/21 10:32:10;;;;;;;24.57;15.77;;;;;;;8.55;100.00;101679.66;5018309;28;20442;-72
2024/02/21 10:34:37;;;;;;;19.67;14.13;;;;;;;8.60;100.00;101680.00;5037183;28;20450;-73
2024/02/21 10:37:04;;;;;;;28.43;16.43;;;;;;;8.49;100.00;101669.63;5018987;28;20517;-72
2024/02/21 10:39:31;;;;;;;22.23;15.77;;;;;;;8.49;100.00;101659.75;5018640;28;21003;-73
2024/02/21 10:42:01;;;;;;;29.57;16.40;;;;;;;8.53;100.00;101668.28;5032047;28;20810;-72
2024/02/21 10:44:30;;;;;;;23.03;16.97;;;;;;;8.09;100.00;101581.16;5014796;28;20466;-72
2024/02/21 10:46:55;;;;;;;25.47;16.57;;;;;;;8.58;100.00;101649.91;5037522;28;20766;-72
2024/02/21 10:49:32;;;;;;;24.90;17.43;;;;;;;8.55;100.00;101645.72;5018197;28;20442;-73
2024/02/21 10:52:13;;;;;;;23.47;17.03;;;;;;;8.25;100.00;101592.88;5019091;28;20210;-72
2024/02/21 10:54:47;;;;;;;24.10;15.67;;;;;;;8.08;100.00;101557.28;5018332;28;20442;-72
2024/02/21 10:57:14;;;;;;;28.07;17.23;;;;;;;8.56;100.00;101622.50;5021731;28;20439;-72
2024/02/21 10:59:40;;;;;;;25.63;16.70;;;;;;;8.60;100.00;101613.97;5032571;28;20477;-72
2024/02/21 11:02:06;;;;;;;24.83;17.20;;;;;;;8.63;100.00;101617.34;5014457;28;20474;-74
2024/02/21 11:04:36;;;;;;;23.80;16.13;;;;;;;8.53;100.00;101594.28;5017469;28;20188;-72
2024/02/21 11:07:04;;;;;;;28.17;16.50;;;;;;;8.68;100.00;101607.81;5028579;28;20438;-72
2024/02/21 11:09:34;;;;;;;21.97;15.40;;;;;;;8.54;100.00;101579.91;5032926;28;20467;-72
2024/02/21 11:12:04;;;;;;;27.23;14.93;;;;;;;8.75;100.00;101589.25;5037745;28;20510;-73